Time;durP1;ratioP1;P1;durP2;ratioP2;P2;SDS_P1;SDS_P2;PMS_P1;PMS_P2;Temp;Humidity;BMP_temperature;BMP_pressure;BME280_temperature;BME280_humidity;BME280_pressure;Samples;Min_cycle;Max_cycle;Signal;HPM_P1;HPM_P2
2021/08/19 00:02:13;;;;;;;2.30;2.00;;;;;;;;;;5071693;28;20055;-59
2021/08/19 00:04:38;;;;;;;2.60;2.03;;;;;;;;;;5071207;28;20028;-58
2021/08/19 00:07:04;;;;;;;2.70;2.10;;;;;;;;;;5053287;28;20309;-59
2021/08/19 00:09:29;;;;;;;3.40;2.03;;;;;;;;;;5049234;28;20055;-59
2021/08/19 00:11:55;;;;;;;3.03;1.90;;;;;;;;;;5050853;28;20074;-58
2021/08/19 00:14:20;;;;;;;2.42;1.85;;;;;;;;;;5051428;28;20085;-59
2021/08/19 00:16:46;;;;;;;3.22;1.88;;;;;;;;;;5070094;28;20023;-59
2021/08/19 00:19:11;;;;;;;2.47;1.80;;;;;;;;;;5072259;28;20090;-59
2021/08/19 00:21:38;;;;;;;4.28;1.90;;;;;;;;;;5070816;28;20081;-58
2021/08/19 00:24:04;;;;;;;6.68;1.90;;;;;;;;;;5070602;28;20024;-59
2021/08/19 00:26:29;;;;;;;4.20;2.30;;;;;;;;;;5069562;28;20473;-59
2021/08/19 00:28:55;;;;;;;2.85;2.10;;;;;;;;;;5070129;28;20052;-59
2021/08/19 00:31:22;;;;;;;5.22;2.20;;;;;;;;;;5071473;28;20025;-59
2021/08/19 00:33:51;;;;;;;4.50;2.17;;;;;;;;;;5070440;28;20052;-58
2021/08/19 00:36:16;;;;;;;2.63;1.85;;;;;;;;;;5080445;28;20045;-59
2021/08/19 00:38:43;;;;;;;2.55;2.10;;;;;;;;;;5071263;28;20565;-60
2021/08/19 00:41:08;;;;;;;2.20;2.00;;;;;;;;;;5069779;28;20028;-60
2021/08/19 00:43:34;;;;;;;3.25;2.30;;;;;;;;;;5070095;28;20629;-59
2021/08/19 00:46:02;;;;;;;2.55;2.10;;;;;;;;;;4017847;28;10000831;-58
2021/08/19 00:48:27;;;;;;;2.97;2.22;;;;;;;;;;5069201;28;20028;-59
2021/08/19 00:50:52;;;;;;;2.92;1.88;;;;;;;;;;5069774;28;20111;-58
2021/08/19 00:53:18;;;;;;;3.63;2.22;;;;;;;;;;5068714;28;20522;-59
2021/08/19 00:55:44;;;;;;;3.63;2.10;;;;;;;;;;5071229;28;20025;-60
2021/08/19 00:58:11;;;;;;;3.53;2.10;;;;;;;;;;5071178;28;20024;-59
2021/08/19 01:00:41;;;;;;;2.33;2.03;;;;;;;;;;5073805;28;20035;-60
2021/08/19 01:03:08;;;;;;;3.33;2.17;;;;;;;;;;5071686;28;20074;-60
2021/08/19 01:05:37;;;;;;;3.30;2.47;;;;;;;;;;5068177;28;20032;-59
2021/08/19 01:08:04;;;;;;;5.43;2.80;;;;;;;;;;5071663;28;20024;-58
2021/08/19 01:10:30;;;;;;;3.65;3.00;;;;;;;;;;5070031;28;20086;-58
2021/08/19 01:12:55;;;;;;;3.33;2.75;;;;;;;;;;5071419;28;20025;-59
2021/08/19 01:15:20;;;;;;;4.43;2.90;;;;;;;;;;5070695;28;20138;-59
2021/08/19 01:17:57;;;;;;;5.07;3.15;;;;;;;;;;5077970;28;20074;-59
2021/08/19 01:20:30;;;;;;;4.43;3.13;;;;;;;;;;5078016;28;20021;-59
2021/08/19 01:22:57;;;;;;;6.88;3.20;;;;;;;;;;5074616;28;20029;-60
2021/08/19 01:25:23;;;;;;;5.38;3.08;;;;;;;;;;5072940;28;20095;-60
2021/08/19 01:27:52;;;;;;;4.78;3.50;;;;;;;;;;5075712;28;20031;-59
2021/08/19 01:30:22;;;;;;;4.45;3.55;;;;;;;;;;5073807;28;20423;-60
2021/08/19 01:32:47;;;;;;;4.82;3.35;;;;;;;;;;5073839;28;20107;-58
2021/08/19 01:35:19;;;;;;;4.40;3.60;;;;;;;;;;5081292;28;20488;-58
2021/08/19 01:37:45;;;;;;;5.30;3.90;;;;;;;;;;5094608;28;20085;-59
2021/08/19 01:40:10;;;;;;;5.82;4.07;;;;;;;;;;5095375;28;20427;-58
2021/08/19 01:42:35;;;;;;;4.97;3.63;;;;;;;;;;5094639;28;20024;-59
2021/08/19 01:45:01;;;;;;;6.00;3.67;;;;;;;;;;5094017;28;20080;-59
2021/08/19 01:47:26;;;;;;;7.45;3.83;;;;;;;;;;5094856;28;20354;-59
2021/08/19 01:49:52;;;;;;;4.50;3.70;;;;;;;;;;5086239;28;20035;-58
2021/08/19 01:52:17;;;;;;;5.95;3.95;;;;;;;;;;5075359;28;20040;-58
2021/08/19 01:54:42;;;;;;;4.07;2.92;;;;;;;;;;5073871;28;20110;-59
2021/08/19 01:57:08;;;;;;;4.22;3.45;;;;;;;;;;5074546;28;20029;-61
2021/08/19 01:59:33;;;;;;;4.35;3.20;;;;;;;;;;5074916;28;20017;-61
2021/08/19 02:02:00;;;;;;;4.70;3.22;;;;;;;;;;5074061;28;20100;-60
2021/08/19 02:04:26;;;;;;;4.20;3.22;;;;;;;;;;5074948;28;20415;-61
2021/08/19 02:06:51;;;;;;;5.10;3.10;;;;;;;;;;5093514;28;20032;-61
2021/08/19 02:09:16;;;;;;;4.35;3.10;;;;;;;;;;5094435;28;20038;-59
2021/08/19 02:11:42;;;;;;;4.30;2.80;;;;;;;;;;5092681;28;20020;-60
2021/08/19 02:14:08;;;;;;;4.57;2.78;;;;;;;;;;5079821;28;20123;-60
2021/08/19 02:16:34;;;;;;;6.47;3.25;;;;;;;;;;5074689;28;20432;-59
2021/08/19 02:19:00;;;;;;;3.00;2.50;;;;;;;;;;5073851;28;20465;-60
2021/08/19 02:21:25;;;;;;;3.05;2.55;;;;;;;;;;5074256;28;20040;-59
2021/08/19 02:23:51;;;;;;;3.88;2.75;;;;;;;;;;5074114;28;20016;-60
2021/08/19 02:26:16;;;;;;;3.97;2.63;;;;;;;;;;5075092;28;20024;-61
2021/08/19 02:28:41;;;;;;;5.03;2.50;;;;;;;;;;5073926;28;20090;-61
2021/08/19 02:31:07;;;;;;;3.70;2.45;;;;;;;;;;5073120;28;20029;-61
2021/08/19 02:33:32;;;;;;;2.85;2.25;;;;;;;;;;5074621;28;20045;-59
2021/08/19 02:35:57;;;;;;;2.97;2.50;;;;;;;;;;5073373;28;20083;-60
2021/08/19 02:38:23;;;;;;;3.53;2.58;;;;;;;;;;5073454;28;20020;-59
2021/08/19 02:40:48;;;;;;;3.40;2.42;;;;;;;;;;5073684;28;20385;-60
2021/08/19 02:43:14;;;;;;;4.57;2.42;;;;;;;;;;5073260;28;20036;-59
2021/08/19 02:45:39;;;;;;;4.55;2.85;;;;;;;;;;5071764;28;20025;-60
2021/08/19 02:48:05;;;;;;;3.53;2.75;;;;;;;;;;5073821;28;20024;-61
2021/08/19 02:50:30;;;;;;;4.75;2.70;;;;;;;;;;5070541;28;20557;-59
2021/08/19 02:52:56;;;;;;;4.50;2.70;;;;;;;;;;5073929;28;20024;-60
2021/08/19 02:55:22;;;;;;;3.47;2.33;;;;;;;;;;5073268;28;20114;-61
2021/08/19 02:57:47;;;;;;;2.92;2.45;;;;;;;;;;5073373;28;20048;-61
2021/08/19 03:00:13;;;;;;;2.90;2.53;;;;;;;;;;5073401;28;20398;-61
2021/08/19 03:02:38;;;;;;;3.38;2.35;;;;;;;;;;5075903;28;20086;-61
2021/08/19 03:05:04;;;;;;;4.50;2.47;;;;;;;;;;5072934;28;20036;-62
2021/08/19 03:07:30;;;;;;;3.63;2.70;;;;;;;;;;5073159;28;20035;-61
2021/08/19 03:09:56;;;;;;;3.10;2.50;;;;;;;;;;5071388;28;20016;-61
2021/08/19 03:12:21;;;;;;;4.18;2.47;;;;;;;;;;5072941;28;20107;-59
2021/08/19 03:14:46;;;;;;;4.93;2.38;;;;;;;;;;5071771;28;20059;-60
2021/08/19 03:17:12;;;;;;;2.60;2.03;;;;;;;;;;5073113;28;20024;-60
2021/08/19 03:19:37;;;;;;;4.00;2.08;;;;;;;;;;5073345;28;20107;-61
2021/08/19 03:22:04;;;;;;;3.03;2.42;;;;;;;;;;5077830;28;20107;-60
2021/08/19 03:24:30;;;;;;;2.67;2.13;;;;;;;;;;5073109;28;20025;-59
2021/08/19 03:26:56;;;;;;;3.67;2.40;;;;;;;;;;5071913;28;20024;-59
2021/08/19 03:29:22;;;;;;;2.90;1.88;;;;;;;;;;5071373;28;20278;-60
2021/08/19 03:31:48;;;;;;;2.38;2.08;;;;;;;;;;5072660;28;20035;-60
2021/08/19 03:34:13;;;;;;;3.50;2.08;;;;;;;;;;5072465;28;20120;-60
2021/08/19 03:36:38;;;;;;;3.45;2.15;;;;;;;;;;5072594;28;20386;-59
2021/08/19 03:39:05;;;;;;;3.30;2.50;;;;;;;;;;5070799;28;20025;-59
2021/08/19 03:41:32;;;;;;;3.33;2.20;;;;;;;;;;5071106;28;20665;-59
2021/08/19 03:43:57;;;;;;;4.78;1.95;;;;;;;;;;5071175;28;20267;-60
2021/08/19 03:46:23;;;;;;;3.45;2.10;;;;;;;;;;5070425;28;20044;-60
2021/08/19 03:48:49;;;;;;;2.60;2.10;;;;;;;;;;5071194;28;20040;-60
2021/08/19 03:51:14;;;;;;;2.30;2.05;;;;;;;;;;5070521;28;20453;-59
2021/08/19 03:53:40;;;;;;;2.83;2.17;;;;;;;;;;5071698;28;20028;-58
2021/08/19 03:56:08;;;;;;;2.78;2.45;;;;;;;;;;5071528;28;20488;-60
2021/08/19 03:58:36;;;;;;;4.05;2.30;;;;;;;;;;5072757;28;20036;-59
2021/08/19 04:01:02;;;;;;;2.30;2.10;;;;;;;;;;5071322;28;20081;-60
2021/08/19 04:03:27;;;;;;;3.25;2.40;;;;;;;;;;5072598;28;20472;-59
2021/08/19 04:05:53;;;;;;;3.75;2.30;;;;;;;;;;5084294;28;20024;-61
2021/08/19 04:08:18;;;;;;;3.08;1.88;;;;;;;;;;5091715;28;20063;-60
2021/08/19 04:10:44;;;;;;;2.80;1.98;;;;;;;;;;5074790;28;20047;-60
2021/08/19 04:13:09;;;;;;;2.30;2.10;;;;;;;;;;5071171;28;20028;-59
2021/08/19 04:15:34;;;;;;;2.38;2.03;;;;;;;;;;5071373;28;20511;-60
2021/08/19 04:18:00;;;;;;;2.35;2.13;;;;;;;;;;5070901;28;20035;-61
2021/08/19 04:20:25;;;;;;;3.70;2.38;;;;;;;;;;5074095;28;20020;-60
2021/08/19 04:22:51;;;;;;;3.70;2.33;;;;;;;;;;5072346;28;20469;-60
2021/08/19 04:25:16;;;;;;;2.40;1.88;;;;;;;;;;5070512;28;20021;-60
2021/08/19 04:27:41;;;;;;;3.78;1.95;;;;;;;;;;5071950;28;20485;-59
2021/08/19 04:30:08;;;;;;;6.00;2.30;;;;;;;;;;5070170;28;20063;-60
2021/08/19 04:32:34;;;;;;;2.83;2.10;;;;;;;;;;5071280;28;20046;-60
2021/08/19 04:34:59;;;;;;;2.42;2.22;;;;;;;;;;5076228;28;20277;-60
2021/08/19 04:37:25;;;;;;;2.83;2.40;;;;;;;;;;5091266;28;20089;-60
2021/08/19 04:39:50;;;;;;;4.82;2.20;;;;;;;;;;5089886;28;20024;-60
2021/08/19 04:42:16;;;;;;;3.47;1.90;;;;;;;;;;5073479;28;20103;-62
2021/08/19 04:44:41;;;;;;;2.40;1.90;;;;;;;;;;5070603;28;20052;-59
2021/08/19 04:47:06;;;;;;;3.08;2.40;;;;;;;;;;5069567;28;20371;-60
2021/08/19 04:49:32;;;;;;;2.83;2.40;;;;;;;;;;5069929;28;20373;-60
2021/08/19 04:51:57;;;;;;;4.13;2.20;;;;;;;;;;5069091;28;20032;-59
2021/08/19 04:54:22;;;;;;;3.65;2.10;;;;;;;;;;5070221;28;20373;-59
2021/08/19 04:56:48;;;;;;;3.55;1.90;;;;;;;;;;5070674;28;20021;-59
2021/08/19 04:59:13;;;;;;;3.65;2.20;;;;;;;;;;5069787;28;20385;-61
2021/08/19 05:01:39;;;;;;;3.67;2.17;;;;;;;;;;5070897;28;20107;-61
2021/08/19 05:04:05;;;;;;;3.40;2.20;;;;;;;;;;5070301;28;20032;-59
2021/08/19 05:06:31;;;;;;;2.45;2.25;;;;;;;;;;5073006;28;20024;-61
2021/08/19 05:08:58;;;;;;;3.25;2.28;;;;;;;;;;5069726;28;20028;-60
2021/08/19 05:11:24;;;;;;;3.55;2.22;;;;;;;;;;5071131;28;20093;-59
2021/08/19 05:13:51;;;;;;;3.25;2.30;;;;;;;;;;5070413;28;20029;-60
2021/08/19 05:16:17;;;;;;;5.72;2.72;;;;;;;;;;5070446;28;20389;-63
2021/08/19 05:18:43;;;;;;;3.55;2.25;;;;;;;;;;5072848;28;20024;-61
2021/08/19 05:21:10;;;;;;;2.60;2.30;;;;;;;;;;5068381;28;20115;-61
2021/08/19 05:23:39;;;;;;;2.60;2.20;;;;;;;;;;5071482;28;20497;-61
2021/08/19 05:26:04;;;;;;;2.30;2.10;;;;;;;;;;5073513;28;20118;-61
2021/08/19 05:28:30;;;;;;;2.72;2.10;;;;;;;;;;5069593;28;20042;-61
2021/08/19 05:30:55;;;;;;;3.08;2.33;;;;;;;;;;5069493;28;20020;-61
2021/08/19 05:33:20;;;;;;;2.40;2.00;;;;;;;;;;5069462;28;20098;-60
2021/08/19 05:35:46;;;;;;;2.70;1.90;;;;;;;;;;5082457;28;20055;-61
2021/08/19 05:38:13;;;;;;;2.22;1.90;;;;;;;;;;5091312;28;20028;-59
2021/08/19 05:40:38;;;;;;;3.50;2.25;;;;;;;;;;5090264;28;20028;-61
2021/08/19 05:43:05;;;;;;;2.45;2.00;;;;;;;;;;5090978;28;20040;-62
2021/08/19 05:45:31;;;;;;;2.92;2.10;;;;;;;;;;5089299;28;20028;-60
2021/08/19 05:47:57;;;;;;;2.60;2.20;;;;;;;;;;5090563;28;20034;-61
2021/08/19 05:50:22;;;;;;;3.20;2.10;;;;;;;;;;5076683;28;20024;-60
2021/08/19 05:52:47;;;;;;;5.15;2.20;;;;;;;;;;5069937;28;20111;-61
2021/08/19 05:55:13;;;;;;;2.75;1.90;;;;;;;;;;5069705;28;20385;-60
2021/08/19 05:57:38;;;;;;;2.55;1.98;;;;;;;;;;5069996;28;20035;-60
2021/08/19 06:00:05;;;;;;;3.13;1.92;;;;;;;;;;5070285;28;20070;-60
2021/08/19 06:02:30;;;;;;;3.15;1.90;;;;;;;;;;5073267;28;20036;-59
2021/08/19 06:04:56;;;;;;;3.78;1.73;;;;;;;;;;5075633;28;20030;-59
2021/08/19 06:07:21;;;;;;;2.53;1.85;;;;;;;;;;5074387;28;20469;-59
2021/08/19 06:09:47;;;;;;;2.70;1.52;;;;;;;;;;5073352;28;20035;-60
2021/08/19 06:12:13;;;;;;;3.75;1.77;;;;;;;;;;5074826;28;20025;-60
2021/08/19 06:14:38;;;;;;;2.28;1.60;;;;;;;;;;4368732;28;10000711;-62
2021/08/19 06:17:03;;;;;;;1.60;1.40;;;;;;;;;;5068986;28;20636;-62
2021/08/19 06:19:29;;;;;;;2.03;1.40;;;;;;;;;;5068475;28;20028;-61
2021/08/19 06:21:54;;;;;;;1.73;1.25;;;;;;;;;;5068626;28;20107;-60
2021/08/19 06:24:19;;;;;;;1.40;1.30;;;;;;;;;;5066906;28;20075;-61
2021/08/19 06:26:45;;;;;;;1.98;1.30;;;;;;;;;;5069514;28;20546;-62
2021/08/19 06:29:10;;;;;;;4.32;1.50;;;;;;;;;;5054450;28;20025;-60
2021/08/19 06:31:35;;;;;;;2.53;1.40;;;;;;;;;;5068278;28;20028;-59
2021/08/19 06:34:01;;;;;;;1.60;1.38;;;;;;;;;;5070178;28;20725;-61
2021/08/19 06:36:26;;;;;;;2.35;1.58;;;;;;;;;;5071525;28;20557;-62
2021/08/19 06:38:54;;;;;;;1.25;1.15;;;;;;;;;;5068713;28;20036;-62
2021/08/19 06:41:24;;;;;;;1.75;1.40;;;;;;;;;;5069294;28;20539;-60
2021/08/19 06:43:50;;;;;;;1.67;1.40;;;;;;;;;;5050666;28;20039;-61
2021/08/19 06:46:16;;;;;;;2.05;1.50;;;;;;;;;;5060429;28;20078;-61
2021/08/19 06:48:41;;;;;;;2.35;1.50;;;;;;;;;;5069923;28;20029;-59
2021/08/19 06:51:06;;;;;;;1.60;1.40;;;;;;;;;;5069276;28;20028;-59
2021/08/19 06:53:32;;;;;;;2.42;1.70;;;;;;;;;;5058720;28;20481;-62
2021/08/19 06:55:57;;;;;;;1.40;1.30;;;;;;;;;;5066953;28;20032;-61
2021/08/19 06:58:22;;;;;;;4.55;1.80;;;;;;;;;;5071226;28;20107;-61
2021/08/19 07:00:48;;;;;;;2.25;1.80;;;;;;;;;;5068194;28;20473;-61
2021/08/19 07:03:15;;;;;;;1.90;1.70;;;;;;;;;;5067679;28;20138;-60
2021/08/19 07:05:42;;;;;;;1.95;1.75;;;;;;;;;;5068940;28;20052;-62
2021/08/19 07:08:07;;;;;;;3.70;1.70;;;;;;;;;;5069607;28;20170;-61
2021/08/19 07:10:32;;;;;;;2.65;1.70;;;;;;;;;;5069029;28;20116;-62
2021/08/19 07:12:58;;;;;;;2.33;1.92;;;;;;;;;;5069012;28;20056;-62
2021/08/19 07:15:23;;;;;;;3.50;1.90;;;;;;;;;;5073171;28;20146;-62
2021/08/19 07:17:51;;;;;;;2.60;2.03;;;;;;;;;;5088716;28;20477;-61
2021/08/19 07:20:16;;;;;;;2.60;1.92;;;;;;;;;;5076860;28;20032;-62
2021/08/19 07:22:45;;;;;;;2.92;1.90;;;;;;;;;;5054807;28;20016;-60
2021/08/19 07:25:12;;;;;;;4.15;1.98;;;;;;;;;;5046832;28;20025;-62
2021/08/19 07:27:37;;;;;;;3.17;1.90;;;;;;;;;;5061507;28;20032;-63
2021/08/19 07:30:04;;;;;;;2.67;2.30;;;;;;;;;;5068244;28;20649;-62
2021/08/19 07:32:29;;;;;;;2.73;2.40;;;;;;;;;;5068231;28;20097;-61
2021/08/19 07:34:54;;;;;;;3.92;2.08;;;;;;;;;;5074771;28;20342;-61
2021/08/19 07:37:20;;;;;;;2.42;1.95;;;;;;;;;;5067755;28;20032;-61
2021/08/19 07:39:45;;;;;;;2.75;2.28;;;;;;;;;;5068538;28;20095;-62
2021/08/19 07:42:11;;;;;;;3.22;2.30;;;;;;;;;;5068281;28;20024;-61
2021/08/19 07:44:36;;;;;;;2.22;2.03;;;;;;;;;;5065030;28;20162;-62
2021/08/19 07:47:02;;;;;;;2.85;2.20;;;;;;;;;;5067155;28;20389;-61
2021/08/19 07:49:27;;;;;;;2.40;2.08;;;;;;;;;;5063590;28;20043;-61
2021/08/19 07:51:53;;;;;;;3.08;1.83;;;;;;;;;;5061568;28;20037;-62
2021/08/19 07:54:18;;;;;;;2.85;1.70;;;;;;;;;;5064311;28;20039;-60
2021/08/19 07:56:44;;;;;;;2.80;1.90;;;;;;;;;;5060896;28;20120;-61
2021/08/19 07:59:10;;;;;;;1.70;1.60;;;;;;;;;;5062785;28;20043;-59
2021/08/19 08:01:35;;;;;;;2.90;1.73;;;;;;;;;;5065198;28;20020;-60
2021/08/19 08:04:01;;;;;;;1.75;1.55;;;;;;;;;;5067500;28;20687;-61
2021/08/19 08:06:26;;;;;;;1.98;1.45;;;;;;;;;;5065462;28;20431;-60
2021/08/19 08:08:52;;;;;;;1.73;1.48;;;;;;;;;;5068066;28;20020;-60
2021/08/19 08:11:18;;;;;;;1.30;1.20;;;;;;;;;;5067301;28;20025;-63
2021/08/19 08:13:43;;;;;;;1.42;1.30;;;;;;;;;;5068843;28;20090;-62
2021/08/19 08:16:11;;;;;;;2.13;1.38;;;;;;;;;;5066852;28;20063;-60
2021/08/19 08:18:36;;;;;;;1.77;1.10;;;;;;;;;;5068078;28;20028;-62
2021/08/19 08:21:02;;;;;;;1.70;1.52;;;;;;;;;;5068376;28;20427;-62
2021/08/19 08:23:32;;;;;;;2.90;1.70;;;;;;;;;;5068535;28;20052;-62
2021/08/19 08:25:59;;;;;;;3.22;1.80;;;;;;;;;;5064956;28;20365;-62
2021/08/19 08:28:30;;;;;;;2.05;1.63;;;;;;;;;;5067686;28;20434;-63
2021/08/19 08:30:57;;;;;;;2.67;1.55;;;;;;;;;;5067666;28;20039;-62
2021/08/19 08:33:23;;;;;;;2.00;1.67;;;;;;;;;;5067004;28;20047;-62
2021/08/19 08:35:50;;;;;;;2.97;1.77;;;;;;;;;;5078060;28;20032;-62
2021/08/19 08:38:18;;;;;;;2.65;1.60;;;;;;;;;;5070419;28;20029;-63
2021/08/19 08:40:48;;;;;;;1.75;1.40;;;;;;;;;;5066559;28;20032;-60
2021/08/19 08:43:16;;;;;;;2.20;1.73;;;;;;;;;;5068769;28;20489;-63
2021/08/19 08:45:45;;;;;;;1.70;1.40;;;;;;;;;;5067704;28;20116;-62
2021/08/19 08:48:20;;;;;;;1.60;1.33;;;;;;;;;;5066712;28;20620;-62
2021/08/19 08:50:47;;;;;;;2.13;1.60;;;;;;;;;;5066398;28;20428;-61
2021/08/19 08:53:14;;;;;;;2.25;1.60;;;;;;;;;;5067133;28;20036;-62
2021/08/19 08:55:39;;;;;;;2.90;1.83;;;;;;;;;;5068381;28;20028;-63
2021/08/19 08:58:07;;;;;;;1.42;1.33;;;;;;;;;;5067742;28;20074;-60
2021/08/19 09:00:32;;;;;;;1.67;1.40;;;;;;;;;;5066788;28;20500;-62
2021/08/19 09:02:58;;;;;;;1.58;1.48;;;;;;;;;;5066361;28;20021;-61
2021/08/19 09:05:25;;;;;;;1.50;1.40;;;;;;;;;;5066055;28;20051;-61
2021/08/19 09:07:56;;;;;;;1.92;1.30;;;;;;;;;;5069155;28;20021;-61
2021/08/19 09:10:27;;;;;;;1.50;1.40;;;;;;;;;;5070456;28;20411;-62
2021/08/19 09:12:52;;;;;;;2.58;1.40;;;;;;;;;;5072096;28;20456;-61
2021/08/19 09:15:20;;;;;;;2.60;1.80;;;;;;;;;;5069307;28;20024;-62
2021/08/19 09:17:53;;;;;;;1.98;1.40;;;;;;;;;;5071847;28;20033;-61
2021/08/19 09:20:21;;;;;;;2.42;1.90;;;;;;;;;;5070936;28;20048;-62
2021/08/19 09:22:59;;;;;;;1.75;1.50;;;;;;;;;;5070924;28;20029;-62
2021/08/19 09:25:31;;;;;;;1.70;1.50;;;;;;;;;;5068068;28;20039;-61
2021/08/19 09:28:13;;;;;;;2.58;2.10;;;;;;;;;;5070648;28;20112;-61
2021/08/19 09:30:44;;;;;;;2.80;1.83;;;;;;;;;;5071065;28;20048;-61
2021/08/19 09:33:10;;;;;;;1.67;1.58;;;;;;;;;;5073001;28;20079;-61
2021/08/19 09:35:36;;;;;;;3.13;2.17;;;;;;;;;;5083575;28;20032;-62
2021/08/19 09:38:29;;;;;;;2.17;1.88;;;;;;;;;;5089922;28;20301;-61
2021/08/19 09:41:05;;;;;;;2.40;1.98;;;;;;;;;;5080498;28;20028;-61
2021/08/19 09:43:42;;;;;;;5.10;2.03;;;;;;;;;;5095596;28;20153;-62
2021/08/19 09:46:09;;;;;;;4.40;2.22;;;;;;;;;;5090854;28;20544;-61
2021/08/19 09:48:34;;;;;;;2.55;1.98;;;;;;;;;;5075175;28;20393;-62
2021/08/19 09:51:18;;;;;;;3.33;2.22;;;;;;;;;;5073815;28;20028;-63
2021/08/19 09:53:53;;;;;;;4.13;2.70;;;;;;;;;;5075282;28;20081;-61
2021/08/19 09:56:28;;;;;;;3.15;2.58;;;;;;;;;;5074243;28;20025;-63
2021/08/19 09:58:55;;;;;;;3.22;2.60;;;;;;;;;;5072652;28;20058;-60
2021/08/19 10:01:20;;;;;;;2.60;2.40;;;;;;;;;;5073641;28;20469;-60
2021/08/19 10:03:45;;;;;;;4.18;2.88;;;;;;;;;;5073855;28;20054;-62
2021/08/19 10:06:11;;;;;;;2.47;2.25;;;;;;;;;;5085352;28;20377;-63
2021/08/19 10:08:37;;;;;;;3.67;2.70;;;;;;;;;;5076103;28;20474;-62
2021/08/19 10:11:03;;;;;;;3.00;2.70;;;;;;;;;;5074276;28;20031;-60
2021/08/19 10:13:29;;;;;;;3.03;2.70;;;;;;;;;;5074742;28;20385;-61
2021/08/19 10:15:55;;;;;;;4.47;2.75;;;;;;;;;;5072627;28;20591;-62
2021/08/19 10:18:24;;;;;;;3.33;2.80;;;;;;;;;;5074278;28;20028;-61
2021/08/19 10:21:01;;;;;;;7.10;3.00;;;;;;;;;;5076596;28;20110;-62
2021/08/19 10:23:28;;;;;;;3.70;2.80;;;;;;;;;;5073523;28;20020;-60
2021/08/19 10:26:01;;;;;;;3.55;3.10;;;;;;;;;;5073191;28;20124;-62
2021/08/19 10:28:26;;;;;;;4.15;3.20;;;;;;;;;;5071945;28;20032;-63
2021/08/19 10:30:59;;;;;;;3.88;2.90;;;;;;;;;;5072243;28;20028;-61
2021/08/19 10:33:36;;;;;;;4.22;2.85;;;;;;;;;;5074114;28;20055;-63
2021/08/19 10:36:11;;;;;;;4.72;2.45;;;;;;;;;;5085734;28;20108;-63
2021/08/19 10:38:41;;;;;;;3.40;2.83;;;;;;;;;;5087969;28;20082;-61
2021/08/19 10:41:35;;;;;;;3.95;2.50;;;;;;;;;;5067661;28;20039;-63
2021/08/19 10:44:08;;;;;;;2.78;1.95;;;;;;;;;;5057842;28;20044;-62
2021/08/19 10:46:38;;;;;;;2.50;2.22;;;;;;;;;;5065397;28;20023;-61
2021/08/19 10:49:04;;;;;;;3.95;2.20;;;;;;;;;;5061745;28;20064;-62
2021/08/19 10:51:29;;;;;;;2.90;2.20;;;;;;;;;;5053347;28;20060;-61
2021/08/19 10:53:55;;;;;;;2.08;1.88;;;;;;;;;;5052620;28;20070;-62
2021/08/19 10:56:44;;;;;;;3.33;2.00;;;;;;;;;;5052738;28;20063;-62
2021/08/19 10:59:31;;;;;;;3.00;2.08;;;;;;;;;;5052546;28;20017;-62
2021/08/19 11:01:57;;;;;;;2.55;1.75;;;;;;;;;;5051819;28;20086;-62
2021/08/19 11:04:44;;;;;;;2.67;1.52;;;;;;;;;;4005276;28;10000777;-62
2021/08/19 11:07:10;;;;;;;2.72;1.60;;;;;;;;;;5050720;28;20527;-62
2021/08/19 11:09:36;;;;;;;2.30;2.03;;;;;;;;;;5051268;28;20037;-61
2021/08/19 11:12:06;;;;;;;2.40;1.67;;;;;;;;;;5052780;28;20076;-62
2021/08/19 11:14:32;;;;;;;1.83;1.52;;;;;;;;;;5052239;28;20029;-62
2021/08/19 11:17:01;;;;;;;3.00;1.63;;;;;;;;;;5062007;28;20043;-61
2021/08/19 11:19:30;;;;;;;2.05;1.60;;;;;;;;;;5073633;28;20492;-62
2021/08/19 11:21:58;;;;;;;1.90;1.48;;;;;;;;;;5073382;28;20140;-62
2021/08/19 11:24:26;;;;;;;2.22;1.83;;;;;;;;;;5072246;28;20220;-62
2021/08/19 11:27:00;;;;;;;2.00;1.63;;;;;;;;;;5071105;28;20013;-62
2021/08/19 11:29:46;;;;;;;4.30;1.80;;;;;;;;;;5074161;28;20020;-62
2021/08/19 11:32:16;;;;;;;2.13;1.85;;;;;;;;;;5072809;28;20401;-60
2021/08/19 11:34:50;;;;;;;2.17;1.45;;;;;;;;;;5072727;28;20079;-62
2021/08/19 11:37:30;;;;;;;1.13;1.02;;;;;;;;;;5075236;28;20048;-62
2021/08/19 11:39:59;;;;;;;1.10;1.00;;;;;;;;;;5071901;28;20020;-62
2021/08/19 11:42:30;;;;;;;1.17;0.82;;;;;;;;;;5071696;28;20477;-62
2021/08/19 11:45:17;;;;;;;0.98;0.85;;;;;;;;;;5070869;28;20063;-60
2021/08/19 11:47:45;;;;;;;0.80;0.80;;;;;;;;;;5071871;28;20484;-61
2021/08/19 11:50:10;;;;;;;1.77;0.80;;;;;;;;;;5072040;28;20031;-61
2021/08/19 11:52:36;;;;;;;1.02;0.80;;;;;;;;;;5072758;28;20021;-61
2021/08/19 11:55:01;;;;;;;1.33;0.85;;;;;;;;;;5070659;28;20478;-60
2021/08/19 11:57:27;;;;;;;1.02;0.90;;;;;;;;;;5072653;28;20032;-62
2021/08/19 12:00:01;;;;;;;2.30;0.90;;;;;;;;;;5070774;28;20034;-62
2021/08/19 12:02:27;;;;;;;1.20;0.77;;;;;;;;;;5072586;28;20024;-62
2021/08/19 12:05:11;;;;;;;1.10;1.00;;;;;;;;;;5071888;28;20039;-62
2021/08/19 12:07:40;;;;;;;0.80;0.70;;;;;;;;;;5070690;28;20270;-62
2021/08/19 12:10:06;;;;;;;1.55;1.02;;;;;;;;;;5071557;28;20037;-61
2021/08/19 12:12:35;;;;;;;2.00;0.90;;;;;;;;;;5072417;28;20024;-62
2021/08/19 12:15:06;;;;;;;2.08;0.85;;;;;;;;;;5071613;28;20037;-61
2021/08/19 12:17:31;;;;;;;1.13;0.70;;;;;;;;;;5072460;28;20028;-61
2021/08/19 12:20:15;;;;;;;2.58;0.88;;;;;;;;;;5074351;28;20032;-61
2021/08/19 12:22:41;;;;;;;2.28;0.98;;;;;;;;;;5070911;28;20099;-62
2021/08/19 12:25:19;;;;;;;1.25;1.10;;;;;;;;;;5071549;28;20520;-60
2021/08/19 12:27:44;;;;;;;1.08;0.95;;;;;;;;;;5072266;28;20078;-61
2021/08/19 12:30:10;;;;;;;1.25;1.00;;;;;;;;;;5070797;28;20385;-60
2021/08/19 12:32:36;;;;;;;1.45;1.00;;;;;;;;;;5071838;28;20428;-62
2021/08/19 12:35:02;;;;;;;3.35;1.13;;;;;;;;;;5076492;28;20020;-62
2021/08/19 12:37:29;;;;;;;1.35;1.15;;;;;;;;;;5090681;28;20057;-61
2021/08/19 12:39:56;;;;;;;1.42;1.05;;;;;;;;;;5082072;28;20516;-62
2021/08/19 12:42:33;;;;;;;0.83;0.80;;;;;;;;;;5071047;28;20075;-63
2021/08/19 12:45:15;;;;;;;1.08;0.90;;;;;;;;;;5070468;28;20028;-62
2021/08/19 12:47:43;;;;;;;1.17;0.90;;;;;;;;;;5069910;28;20028;-61
2021/08/19 12:50:10;;;;;;;0.90;0.77;;;;;;;;;;5071695;28;20405;-61
2021/08/19 12:52:37;;;;;;;1.58;0.95;;;;;;;;;;5071601;28;20036;-61
2021/08/19 12:55:05;;;;;;;;;;;;;;;;;;5071123;28;20063;-61
2021/08/19 12:57:31;;;;;;;1.10;0.95;;;;;;;;;;5077123;28;19920;-61
2021/08/19 12:59:58;;;;;;;2.25;1.05;;;;;;;;;;5091661;28;20138;-61
2021/08/19 13:02:26;;;;;;;1.60;1.00;;;;;;;;;;5091911;28;20081;-62
2021/08/19 13:04:51;;;;;;;1.10;0.90;;;;;;;;;;5085447;28;20104;-61
2021/08/19 13:07:16;;;;;;;1.30;1.05;;;;;;;;;;5071260;28;20028;-62
2021/08/19 13:09:42;;;;;;;1.52;1.20;;;;;;;;;;5070069;28;20074;-62
2021/08/19 13:12:07;;;;;;;2.88;1.48;;;;;;;;;;5069419;28;20038;-62
2021/08/19 13:14:32;;;;;;;2.05;1.20;;;;;;;;;;5071661;28;20500;-62
2021/08/19 13:16:58;;;;;;;1.90;1.13;;;;;;;;;;5069334;28;20068;-61
2021/08/19 13:19:23;;;;;;;1.55;1.23;;;;;;;;;;5071590;28;20024;-60
2021/08/19 13:21:48;;;;;;;2.67;1.30;;;;;;;;;;5070881;28;20021;-60
2021/08/19 13:24:14;;;;;;;2.03;1.30;;;;;;;;;;5071548;28;20473;-60
2021/08/19 13:26:41;;;;;;;1.35;1.10;;;;;;;;;;5070808;28;20081;-62
2021/08/19 13:29:07;;;;;;;1.63;1.10;;;;;;;;;;5071426;28;20027;-62
2021/08/19 13:31:32;;;;;;;1.42;1.10;;;;;;;;;;5070301;28;20111;-62
2021/08/19 13:33:57;;;;;;;1.58;1.25;;;;;;;;;;5070812;28;20405;-61
2021/08/19 13:36:23;;;;;;;1.55;1.33;;;;;;;;;;5086844;28;20017;-63
2021/08/19 13:38:48;;;;;;;1.77;1.30;;;;;;;;;;5080692;28;20036;-61
2021/08/19 13:41:13;;;;;;;1.77;1.40;;;;;;;;;;5073165;28;20053;-60
2021/08/19 13:43:39;;;;;;;1.90;1.48;;;;;;;;;;5069905;28;20025;-60
2021/08/19 13:46:05;;;;;;;1.50;1.13;;;;;;;;;;5068444;28;20021;-61
2021/08/19 13:48:30;;;;;;;2.97;1.50;;;;;;;;;;5069519;28;20021;-62
2021/08/19 13:50:56;;;;;;;1.70;1.58;;;;;;;;;;5069575;28;20032;-60
2021/08/19 13:53:21;;;;;;;1.60;1.50;;;;;;;;;;5071051;28;20020;-60
2021/08/19 13:55:47;;;;;;;2.03;1.63;;;;;;;;;;5073140;28;20071;-60
2021/08/19 13:58:12;;;;;;;2.03;1.70;;;;;;;;;;5070083;28;20024;-61
2021/08/19 14:00:37;;;;;;;3.00;1.80;;;;;;;;;;5070201;28;20116;-61
2021/08/19 14:03:03;;;;;;;2.08;1.60;;;;;;;;;;5071120;28;20382;-61
2021/08/19 14:05:29;;;;;;;1.77;1.67;;;;;;;;;;5077247;28;20507;-60
2021/08/19 14:07:55;;;;;;;2.78;1.80;;;;;;;;;;5089839;28;20031;-60
2021/08/19 14:10:20;;;;;;;2.30;1.70;;;;;;;;;;5089675;28;20103;-61
2021/08/19 14:12:47;;;;;;;1.85;1.67;;;;;;;;;;5090530;28;20034;-61
2021/08/19 14:15:13;;;;;;;1.85;1.63;;;;;;;;;;5090632;28;20034;-61
2021/08/19 14:17:38;;;;;;;3.60;2.00;;;;;;;;;;5075796;28;20024;-60
2021/08/19 14:20:05;;;;;;;3.15;1.70;;;;;;;;;;5070368;28;20830;-62
2021/08/19 14:22:32;;;;;;;3.80;1.85;;;;;;;;;;5071113;28;20044;-61
2021/08/19 14:24:58;;;;;;;3.10;1.80;;;;;;;;;;5073734;28;20032;-62
2021/08/19 14:27:23;;;;;;;2.60;1.90;;;;;;;;;;5078689;28;20016;-61
2021/08/19 14:29:49;;;;;;;2.17;1.77;;;;;;;;;;5094428;28;20487;-62
2021/08/19 14:32:14;;;;;;;1.90;1.70;;;;;;;;;;5094748;28;20108;-62
2021/08/19 14:34:39;;;;;;;2.30;1.80;;;;;;;;;;5090927;28;20051;-62
2021/08/19 14:37:10;;;;;;;4.03;1.88;;;;;;;;;;5073656;28;20404;-63
2021/08/19 14:39:35;;;;;;;2.22;1.40;;;;;;;;;;5074022;28;20100;-62
2021/08/19 14:42:00;;;;;;;2.10;1.85;;;;;;;;;;5073749;28;20544;-62
2021/08/19 14:44:26;;;;;;;1.67;1.52;;;;;;;;;;5074285;28;20020;-61